Terminal Aerodrome Forecast
Issued by NWS

Home | Current Version | Previous Version | Text Only | Print | Product List | Glossary Off
Versions: 1 2 3 4 5 6 7 8 9 10 11 12 13 14 15

000
FTUS43 KMPX 211100
TAFRWF
TAF
KRWF 211131Z 2112/2212 32008KT P6SM SCT020
      TEMPO 2112/2113 BKN020
     FM211500 33017G25KT P6SM SKC
     FM220200 33008KT P6SM SKC
     FM220700 33003KT P6SM BKN250=

USA.gov is the U.S. government's official web portal to all federal, state and local government web resources and services.